createdAt,value
2022-10-30T00:00:48.863Z,17.42
2022-10-30T00:03:16.371Z,17.80
2022-10-30T00:05:48.286Z,17.69
2022-10-30T00:08:18.049Z,17.42
2022-10-30T00:10:45.891Z,17.33
2022-10-30T00:13:14.115Z,17.27
2022-10-30T00:15:47.214Z,16.81
2022-10-30T00:18:14.212Z,16.83
2022-10-30T00:20:41.045Z,17.45
2022-10-30T00:23:07.804Z,17.34
2022-10-30T00:25:36.326Z,17.57
2022-10-30T00:28:05.242Z,17.40
2022-10-30T00:30:32.518Z,17.56
2022-10-30T00:32:59.721Z,17.35
2022-10-30T00:35:26.770Z,17.57
2022-10-30T00:37:53.909Z,17.71
2022-10-30T00:40:20.825Z,17.82
2022-10-30T00:42:48.381Z,17.42
2022-10-30T00:45:17.265Z,17.63
2022-10-30T00:47:59.450Z,17.73
2022-10-30T00:50:32.214Z,17.01
2022-10-30T00:53:11.867Z,16.90
2022-10-30T00:56:07.522Z,17.32
2022-10-30T00:58:44.968Z,17.51
2022-10-30T01:01:17.933Z,17.21
2022-10-30T01:03:46.266Z,17.09
2022-10-30T01:06:15.993Z,16.80
2022-10-30T01:08:43.853Z,16.96
2022-10-30T01:11:12.079Z,17.05
2022-10-30T01:13:42.921Z,17.17
2022-10-30T01:16:44.535Z,17.18
2022-10-30T01:19:29.883Z,16.85
2022-10-30T01:22:30.705Z,16.57
2022-10-30T01:25:34.547Z,16.94
2022-10-30T01:28:26.183Z,17.12
2022-10-30T01:30:56.947Z,17.23
2022-10-30T01:33:33.415Z,16.83
2022-10-30T01:36:12.749Z,16.67
2022-10-30T01:38:47.709Z,16.80
2022-10-30T01:41:14.898Z,16.49
2022-10-30T01:43:47.257Z,16.98
2022-10-30T01:46:23.065Z,16.73
2022-10-30T01:49:12.326Z,16.83
2022-10-30T01:51:56.423Z,16.85
2022-10-30T01:54:26.127Z,16.63
2022-10-30T01:57:17.316Z,16.89
2022-10-30T02:00:05.353Z,16.69
2022-10-30T02:02:40.041Z,16.69
2022-10-30T02:05:12.128Z,16.57
2022-10-30T02:07:39.004Z,17.14
2022-10-30T02:10:08.318Z,17.08
2022-10-30T02:12:35.234Z,16.72
2022-10-30T02:15:02.428Z,16.83
2022-10-30T02:17:29.498Z,16.75
2022-10-30T02:19:57.027Z,16.39
2022-10-30T02:22:25.128Z,16.07
2022-10-30T02:24:52.400Z,16.28
2022-10-30T02:27:22.463Z,15.96
2022-10-30T02:29:49.377Z,16.28
2022-10-30T02:32:16.249Z,15.56
2022-10-30T02:34:44.391Z,16.03
2022-10-30T02:37:11.340Z,16.38
2022-10-30T02:39:39.618Z,16.13
2022-10-30T02:42:07.570Z,16.22
2022-10-30T02:44:34.382Z,15.87
2022-10-30T02:47:01.312Z,15.75
2022-10-30T02:49:28.132Z,15.98
2022-10-30T02:51:54.980Z,16.03
2022-10-30T02:54:21.854Z,15.87
2022-10-30T02:56:49.374Z,15.50
2022-10-30T02:59:16.204Z,15.79
2022-10-30T03:01:43.671Z,16.00
2022-10-30T03:04:10.645Z,16.29
2022-10-30T03:06:37.513Z,15.89
2022-10-30T03:09:05.583Z,15.74
2022-10-30T03:11:34.126Z,16.14
2022-10-30T03:14:00.907Z,15.65
2022-10-30T03:16:29.496Z,15.89
2022-10-30T03:18:57.034Z,15.71
2022-10-30T03:21:25.220Z,15.94
2022-10-30T03:23:52.715Z,16.10
2022-10-30T03:26:20.239Z,15.83
2022-10-30T03:29:03.400Z,16.17
2022-10-30T03:31:31.193Z,15.94
2022-10-30T03:34:14.407Z,16.34
2022-10-30T03:36:42.143Z,16.48
2022-10-30T03:39:09.082Z,16.53
2022-10-30T03:41:36.677Z,16.62
2022-10-30T03:44:03.582Z,16.44
2022-10-30T03:46:31.519Z,16.98
2022-10-30T03:49:12.491Z,16.56
2022-10-30T03:51:39.418Z,16.79
2022-10-30T03:54:06.569Z,16.80
2022-10-30T03:56:33.444Z,17.08
2022-10-30T03:59:02.023Z,16.44
2022-10-30T04:01:30.096Z,16.56
2022-10-30T04:03:57.392Z,16.49
2022-10-30T04:06:25.414Z,16.12
2022-10-30T04:08:54.938Z,16.40
2022-10-30T04:11:22.032Z,15.74
2022-10-30T04:13:48.876Z,16.53
2022-10-30T04:16:15.671Z,16.68
2022-10-30T04:18:43.640Z,16.96
2022-10-30T04:21:11.858Z,17.25
2022-10-30T04:23:39.243Z,17.02
2022-10-30T04:26:06.206Z,16.76
2022-10-30T04:28:35.399Z,16.73
2022-10-30T04:31:04.087Z,16.67
2022-10-30T04:33:32.585Z,16.14
2022-10-30T04:36:00.318Z,16.49
2022-10-30T04:38:27.225Z,16.18
2022-10-30T04:40:56.038Z,16.58
2022-10-30T04:43:28.396Z,16.18
2022-10-30T04:45:55.209Z,15.95
2022-10-30T04:48:22.011Z,16.27
2022-10-30T04:50:49.064Z,16.25
2022-10-30T04:53:22.559Z,16.29
2022-10-30T04:55:55.543Z,16.61
2022-10-30T04:58:22.506Z,16.92
2022-10-30T05:01:03.385Z,16.34
2022-10-30T05:03:31.120Z,16.21
2022-10-30T05:06:04.363Z,16.16
2022-10-30T05:08:31.366Z,16.40
2022-10-30T05:11:05.162Z,16.48
2022-10-30T05:13:32.206Z,16.71
2022-10-30T05:15:58.991Z,16.92
2022-10-30T05:18:25.818Z,16.75
2022-10-30T05:20:53.087Z,16.43
2022-10-30T05:23:19.980Z,16.44
2022-10-30T05:25:46.951Z,16.20
2022-10-30T05:28:16.119Z,16.22
2022-10-30T05:30:52.349Z,15.87
2022-10-30T05:33:37.973Z,16.39
2022-10-30T05:36:05.755Z,16.03
2022-10-30T05:38:32.543Z,16.17
2022-10-30T05:40:59.983Z,15.99
2022-10-30T05:43:26.807Z,16.30
2022-10-30T05:45:53.667Z,16.20
2022-10-30T05:48:20.575Z,16.18
2022-10-30T05:50:47.614Z,16.05
2022-10-30T05:53:27.198Z,16.03
2022-10-30T05:55:59.997Z,15.64
2022-10-30T05:58:31.302Z,15.91
2022-10-30T06:01:06.072Z,15.84
2022-10-30T06:03:40.991Z,15.97
2022-10-30T06:06:07.968Z,16.20
2022-10-30T06:08:35.514Z,15.66
2022-10-30T06:11:12.348Z,15.75
2022-10-30T06:13:41.327Z,15.75
2022-10-30T06:16:12.471Z,15.70
2022-10-30T06:19:00.262Z,16.00
2022-10-30T06:21:28.696Z,16.03
2022-10-30T06:24:12.818Z,15.97
2022-10-30T06:27:02.937Z,15.70
2022-10-30T06:29:30.070Z,15.72
2022-10-30T06:31:58.695Z,15.96
2022-10-30T06:34:27.802Z,15.96
2022-10-30T06:36:54.982Z,16.11
2022-10-30T06:39:22.873Z,15.92
2022-10-30T06:42:12.492Z,15.96
2022-10-30T06:44:49.099Z,16.14
2022-10-30T06:47:16.303Z,16.05
2022-10-30T06:49:43.129Z,15.66
2022-10-30T06:52:10.054Z,15.91
2022-10-30T06:54:37.573Z,15.96
2022-10-30T06:57:40.054Z,15.72
2022-10-30T07:00:25.376Z,15.63
2022-10-30T07:03:10.831Z,15.50
2022-10-30T07:05:39.199Z,15.65
2022-10-30T07:08:06.000Z,15.72
2022-10-30T07:10:33.116Z,15.56
2022-10-30T07:13:18.622Z,15.54
2022-10-30T07:15:54.458Z,15.61
2022-10-30T07:18:26.344Z,15.44
2022-10-30T07:20:57.382Z,15.94
2022-10-30T07:23:25.165Z,15.77
2022-10-30T07:25:58.357Z,15.87
2022-10-30T07:28:33.861Z,15.41
2022-10-30T07:31:28.931Z,15.59
2022-10-30T07:34:38.343Z,15.95
2022-10-30T07:37:25.952Z,16.15
2022-10-30T07:39:59.751Z,16.15
2022-10-30T07:42:56.491Z,16.46
2022-10-30T07:45:41.303Z,16.39
2022-10-30T07:48:26.750Z,16.04
2022-10-30T07:51:02.251Z,16.11
2022-10-30T07:53:29.960Z,16.16
2022-10-30T07:55:58.038Z,16.47
2022-10-30T07:59:02.964Z,16.61
2022-10-30T08:01:52.875Z,16.46
2022-10-30T08:04:39.972Z,16.64
2022-10-30T08:07:47.133Z,16.42
2022-10-30T08:10:15.288Z,16.83
2022-10-30T08:12:44.532Z,16.95
2022-10-30T08:15:12.259Z,16.85
2022-10-30T08:17:46.883Z,16.82
2022-10-30T08:20:15.750Z,16.78
2022-10-30T08:22:54.046Z,17.01
2022-10-30T08:25:27.616Z,17.35
2022-10-30T08:28:04.020Z,17.16
2022-10-30T08:30:37.493Z,17.39
2022-10-30T08:33:08.128Z,17.68
2022-10-30T08:35:56.771Z,17.88
2022-10-30T08:38:24.255Z,17.63
2022-10-30T08:41:05.766Z,17.83
2022-10-30T08:43:38.861Z,18.13
2022-10-30T08:46:05.848Z,18.11
2022-10-30T08:48:32.742Z,18.10
2022-10-30T08:51:01.338Z,18.38
2022-10-30T08:53:34.299Z,18.42
2022-10-30T08:56:03.688Z,18.57
2022-10-30T08:58:42.334Z,18.53
2022-10-30T09:01:09.472Z,18.58
2022-10-30T09:03:54.814Z,18.99
2022-10-30T09:06:47.576Z,19.00
2022-10-30T09:09:32.981Z,19.04
2022-10-30T09:12:02.535Z,19.05
2022-10-30T09:14:34.161Z,19.23
2022-10-30T09:17:01.008Z,19.41
2022-10-30T09:19:29.118Z,19.65
2022-10-30T09:21:58.305Z,19.58
2022-10-30T09:24:25.188Z,19.42
2022-10-30T09:26:51.983Z,19.25
2022-10-30T09:29:26.079Z,19.62
2022-10-30T09:32:10.562Z,19.29
2022-10-30T09:34:48.304Z,19.66
2022-10-30T09:37:24.585Z,19.66
2022-10-30T09:39:55.262Z,19.60
2022-10-30T09:42:46.928Z,19.77
2022-10-30T09:45:29.625Z,20.01
2022-10-30T09:48:19.495Z,20.55
2022-10-30T09:51:13.821Z,19.97
2022-10-30T09:54:10.547Z,20.29
2022-10-30T09:57:12.625Z,20.43
2022-10-30T10:00:13.161Z,20.98
2022-10-30T10:03:19.886Z,21.21
2022-10-30T10:06:11.559Z,21.17
2022-10-30T10:09:01.043Z,21.16
2022-10-30T10:11:58.934Z,21.15
2022-10-30T10:14:32.547Z,21.19
2022-10-30T10:17:02.985Z,21.22
2022-10-30T10:19:38.663Z,21.59
2022-10-30T10:22:22.882Z,21.78
2022-10-30T10:24:50.659Z,21.91
2022-10-30T10:27:32.526Z,21.27
2022-10-30T10:30:02.993Z,21.53
2022-10-30T10:32:51.588Z,22.23
2022-10-30T10:35:24.773Z,21.79
2022-10-30T10:38:13.561Z,21.69
2022-10-30T10:41:03.286Z,22.13
2022-10-30T10:43:54.864Z,22.40
2022-10-30T10:46:36.864Z,22.95
2022-10-30T10:49:31.578Z,22.86
2022-10-30T10:52:07.177Z,23.08
2022-10-30T10:54:46.205Z,23.17
2022-10-30T10:57:27.626Z,23.62
2022-10-30T11:00:23.174Z,23.76
2022-10-30T11:03:00.392Z,23.18
2022-10-30T11:05:43.988Z,22.98
2022-10-30T11:08:17.231Z,23.62
2022-10-30T11:10:45.937Z,23.92
2022-10-30T11:13:14.731Z,24.02
2022-10-30T11:15:58.257Z,23.92
2022-10-30T11:18:25.179Z,23.98
2022-10-30T11:21:04.378Z,23.90
2022-10-30T11:23:36.008Z,24.18
2022-10-30T11:26:03.398Z,23.73
2022-10-30T11:28:41.936Z,24.05
2022-10-30T11:31:18.875Z,24.04
2022-10-30T11:33:45.752Z,24.12
2022-10-30T11:36:16.263Z,24.01
2022-10-30T11:38:43.085Z,24.28
2022-10-30T11:41:13.382Z,24.52
2022-10-30T11:43:41.685Z,24.14
2022-10-30T11:46:21.855Z,24.16
2022-10-30T11:48:54.992Z,24.34
2022-10-30T11:51:47.807Z,24.57
2022-10-30T11:54:21.558Z,24.81
2022-10-30T11:56:50.127Z,24.92
2022-10-30T11:59:22.900Z,24.61
2022-10-30T12:02:21.182Z,25.21
2022-10-30T12:04:49.619Z,25.40
2022-10-30T12:07:34.908Z,25.39
2022-10-30T12:10:03.123Z,25.37
2022-10-30T12:12:36.163Z,24.94
2022-10-30T12:15:21.419Z,24.90
2022-10-30T12:17:58.592Z,24.60
2022-10-30T12:20:26.825Z,24.65
2022-10-30T12:22:54.392Z,24.98
2022-10-30T12:25:25.671Z,25.31
2022-10-30T12:28:01.160Z,25.14
2022-10-30T12:30:32.833Z,25.04
2022-10-30T12:33:13.955Z,24.70
2022-10-30T12:36:12.205Z,25.11
2022-10-30T12:38:58.345Z,25.26
2022-10-30T12:41:29.605Z,25.02
2022-10-30T12:44:18.766Z,25.36
2022-10-30T12:46:55.924Z,25.00
2022-10-30T12:49:39.866Z,25.12
2022-10-30T12:52:34.315Z,25.65
2022-10-30T12:55:04.147Z,25.74
2022-10-30T12:57:41.385Z,25.56
2022-10-30T13:00:16.832Z,25.57
2022-10-30T13:03:21.553Z,25.63
2022-10-30T13:05:59.767Z,25.50
2022-10-30T13:08:53.455Z,24.59
2022-10-30T13:11:39.341Z,24.98
2022-10-30T13:14:13.389Z,25.18
2022-10-30T13:16:40.257Z,24.91
2022-10-30T13:19:11.400Z,24.96
2022-10-30T13:21:59.456Z,25.34
2022-10-30T13:25:00.759Z,24.96
2022-10-30T13:27:54.660Z,25.08
2022-10-30T13:30:23.448Z,24.94
2022-10-30T13:33:06.587Z,24.98
2022-10-30T13:35:59.366Z,24.56
2022-10-30T13:38:46.318Z,25.03
2022-10-30T13:41:34.449Z,25.05
2022-10-30T13:44:07.651Z,25.16
2022-10-30T13:47:08.630Z,25.24
2022-10-30T13:49:41.413Z,25.03
2022-10-30T13:52:17.156Z,25.07
2022-10-30T13:54:59.242Z,25.03
2022-10-30T13:57:34.330Z,24.87
2022-10-30T14:00:07.334Z,24.90
2022-10-30T14:02:58.327Z,24.88
2022-10-30T14:05:36.841Z,24.89
2022-10-30T14:08:11.305Z,24.92
2022-10-30T14:10:45.869Z,25.02
2022-10-30T14:13:27.088Z,25.01
2022-10-30T14:16:01.148Z,24.83
2022-10-30T14:18:30.792Z,25.06
2022-10-30T14:21:18.777Z,24.98
2022-10-30T14:23:45.594Z,24.92
2022-10-30T14:26:14.350Z,24.66
2022-10-30T14:28:46.933Z,24.66
2022-10-30T14:31:16.910Z,24.76
2022-10-30T14:33:48.446Z,24.81
2022-10-30T14:36:33.691Z,24.63
2022-10-30T14:39:21.513Z,24.63
2022-10-30T14:42:03.296Z,24.58
2022-10-30T14:44:48.514Z,24.50
2022-10-30T14:47:27.102Z,24.46
2022-10-30T14:50:01.980Z,24.51
2022-10-30T14:52:41.145Z,24.51
2022-10-30T14:55:31.956Z,24.47
2022-10-30T14:58:01.977Z,24.46
2022-10-30T15:00:40.046Z,24.05
2022-10-30T15:03:15.792Z,24.09
2022-10-30T15:06:06.025Z,23.91
2022-10-30T15:08:54.949Z,23.68
2022-10-30T15:11:26.984Z,23.63
2022-10-30T15:13:58.409Z,23.47
2022-10-30T15:16:27.883Z,23.53
2022-10-30T15:19:05.224Z,23.19
2022-10-30T15:21:41.764Z,23.26
2022-10-30T15:24:20.284Z,23.26
2022-10-30T15:26:53.291Z,23.30
2022-10-30T15:29:31.382Z,23.22
2022-10-30T15:32:01.603Z,23.37
2022-10-30T15:34:30.765Z,23.32
2022-10-30T15:36:57.652Z,23.13
2022-10-30T15:39:25.433Z,22.81
2022-10-30T15:41:56.782Z,22.92
2022-10-30T15:44:27.519Z,22.98
2022-10-30T15:46:56.907Z,22.83
2022-10-30T15:49:37.945Z,22.90
2022-10-30T15:52:25.093Z,22.82
2022-10-30T15:54:57.911Z,22.77
2022-10-30T15:58:12.862Z,22.67
2022-10-30T16:00:26.873Z,22.42
2022-10-30T16:03:13.655Z,22.25
2022-10-30T16:05:40.560Z,22.27
2022-10-30T16:08:15.714Z,22.00
2022-10-30T16:10:44.482Z,21.89
2022-10-30T16:13:18.332Z,21.82
2022-10-30T16:15:49.767Z,21.69
2022-10-30T16:18:27.216Z,21.68
2022-10-30T16:21:02.982Z,21.55
2022-10-30T16:23:36.115Z,21.49
2022-10-30T16:26:02.906Z,21.46
2022-10-30T16:28:31.144Z,21.41
2022-10-30T16:31:01.661Z,21.50
2022-10-30T16:33:31.187Z,21.63
2022-10-30T16:35:59.671Z,21.65
2022-10-30T16:38:29.998Z,21.66
2022-10-30T16:40:57.217Z,21.43
2022-10-30T16:43:28.353Z,21.46
2022-10-30T16:45:57.038Z,21.40
2022-10-30T16:48:28.745Z,21.17
2022-10-30T16:51:03.691Z,21.21
2022-10-30T16:53:31.658Z,21.37
2022-10-30T16:55:59.358Z,21.28
2022-10-30T16:58:31.828Z,21.36
2022-10-30T17:01:06.936Z,21.37
2022-10-30T17:03:38.297Z,21.38
2022-10-30T17:06:07.854Z,21.47
2022-10-30T17:08:43.207Z,21.53
2022-10-30T17:11:18.784Z,21.53
2022-10-30T17:13:54.742Z,21.53
2022-10-30T17:16:27.033Z,21.46
2022-10-30T17:18:59.580Z,20.96
2022-10-30T17:21:38.303Z,20.76
2022-10-30T17:24:05.640Z,21.01
2022-10-30T17:26:39.232Z,20.99
2022-10-30T17:29:06.072Z,20.47
2022-10-30T17:31:38.819Z,20.72
2022-10-30T17:34:13.629Z,21.34
2022-10-30T17:36:43.215Z,20.96
2022-10-30T17:39:10.040Z,20.82
2022-10-30T17:41:37.545Z,20.80
2022-10-30T17:44:05.435Z,20.71
2022-10-30T17:46:32.661Z,20.78
2022-10-30T17:48:59.962Z,21.00
2022-10-30T17:51:28.324Z,21.07
2022-10-30T17:53:55.178Z,20.82
2022-10-30T17:56:28.892Z,20.85
2022-10-30T17:58:56.041Z,20.60
2022-10-30T18:01:25.244Z,20.57
2022-10-30T18:03:55.151Z,20.43
2022-10-30T18:06:24.929Z,20.39
2022-10-30T18:08:51.852Z,20.56
2022-10-30T18:11:21.067Z,20.42
2022-10-30T18:13:49.207Z,20.52
2022-10-30T18:16:18.785Z,20.31
2022-10-30T18:18:45.941Z,20.55
2022-10-30T18:21:17.920Z,20.87
2022-10-30T18:23:53.424Z,20.80
2022-10-30T18:26:25.339Z,20.88
2022-10-30T18:28:52.845Z,20.70
2022-10-30T18:31:22.064Z,20.74
2022-10-30T18:33:49.431Z,20.66
2022-10-30T18:36:18.693Z,20.59
2022-10-30T18:38:54.722Z,20.66
2022-10-30T18:41:35.568Z,20.57
2022-10-30T18:44:02.889Z,20.64
2022-10-30T18:46:31.452Z,20.61
2022-10-30T18:48:58.954Z,20.37
2022-10-30T18:51:27.493Z,20.28
2022-10-30T18:53:57.160Z,20.38
2022-10-30T18:56:26.895Z,20.35
2022-10-30T18:58:58.690Z,20.36
2022-10-30T19:01:34.146Z,20.20
2022-10-30T19:04:02.383Z,20.19
2022-10-30T19:06:29.636Z,20.27
2022-10-30T19:08:56.468Z,20.40
2022-10-30T19:11:25.333Z,20.17
2022-10-30T19:13:53.777Z,20.38
2022-10-30T19:16:21.733Z,20.45
2022-10-30T19:18:48.737Z,20.25
2022-10-30T19:21:21.269Z,20.26
2022-10-30T19:23:48.604Z,20.32
2022-10-30T19:26:16.240Z,20.25
2022-10-30T19:28:44.393Z,20.21
2022-10-30T19:31:16.080Z,20.31
2022-10-30T19:33:42.975Z,20.23
2022-10-30T19:36:33.846Z,20.37
2022-10-30T19:39:08.338Z,20.18
2022-10-30T19:41:36.225Z,19.58
2022-10-30T19:44:03.158Z,19.87
2022-10-30T19:46:29.972Z,20.10
2022-10-30T19:48:58.127Z,19.80
2022-10-30T19:51:25.655Z,19.76
2022-10-30T19:53:53.845Z,19.68
2022-10-30T19:56:21.692Z,19.20
2022-10-30T19:58:48.840Z,19.60
2022-10-30T20:01:16.170Z,20.12
2022-10-30T20:03:43.377Z,20.16
2022-10-30T20:06:14.051Z,19.92
2022-10-30T20:08:41.221Z,20.10
2022-10-30T20:11:08.385Z,20.02
2022-10-30T20:13:37.252Z,19.80
2022-10-30T20:16:05.400Z,18.33
2022-10-30T20:18:35.095Z,18.50
2022-10-30T20:21:13.496Z,18.77
2022-10-30T20:23:40.265Z,18.67
2022-10-30T20:26:26.426Z,18.89
2022-10-30T20:28:53.621Z,19.41
2022-10-30T20:31:20.935Z,19.34
2022-10-30T20:33:47.826Z,19.09
2022-10-30T20:36:14.684Z,19.24
2022-10-30T20:38:41.622Z,19.59
2022-10-30T20:41:21.149Z,19.80
2022-10-30T20:43:50.063Z,19.64
2022-10-30T20:46:17.704Z,19.38
2022-10-30T20:48:44.513Z,19.52
2022-10-30T20:51:11.739Z,19.35
2022-10-30T20:53:38.972Z,18.92
2022-10-30T20:56:06.512Z,18.84
2022-10-30T20:58:33.433Z,19.17
2022-10-30T21:01:00.751Z,19.36
2022-10-30T21:03:28.014Z,19.45
2022-10-30T21:06:00.015Z,19.12
2022-10-30T21:08:31.744Z,19.04
2022-10-30T21:11:03.123Z,19.24
2022-10-30T21:13:30.212Z,19.10
2022-10-30T21:16:01.822Z,18.77
2022-10-30T21:18:28.646Z,18.65
2022-10-30T21:21:00.544Z,18.59
2022-10-30T21:23:27.457Z,18.19
2022-10-30T21:25:59.908Z,18.44
2022-10-30T21:28:26.686Z,18.35
2022-10-30T21:30:53.448Z,18.13
2022-10-30T21:33:20.265Z,17.72
2022-10-30T21:35:47.048Z,18.03
2022-10-30T21:38:13.848Z,18.24
2022-10-30T21:40:40.604Z,17.85
2022-10-30T21:43:07.743Z,17.69
2022-10-30T21:45:36.717Z,17.81
2022-10-30T21:48:03.601Z,18.12
2022-10-30T21:50:30.351Z,18.14
2022-10-30T21:52:57.378Z,17.98
2022-10-30T21:55:24.411Z,17.43
2022-10-30T21:57:51.236Z,17.58
2022-10-30T22:00:18.216Z,17.87
2022-10-30T22:02:45.028Z,17.88
2022-10-30T22:05:11.800Z,18.65
2022-10-30T22:07:38.606Z,18.53
2022-10-30T22:10:06.081Z,18.88
2022-10-30T22:12:32.926Z,18.85
2022-10-30T22:14:59.759Z,18.81
2022-10-30T22:17:30.675Z,18.73
2022-10-30T22:20:00.673Z,18.81
2022-10-30T22:22:29.003Z,18.95
2022-10-30T22:24:55.775Z,18.94
2022-10-30T22:27:22.548Z,18.97
2022-10-30T22:29:49.296Z,18.67
2022-10-30T22:32:16.089Z,18.54
2022-10-30T22:34:42.819Z,18.62
2022-10-30T22:37:09.571Z,18.61
2022-10-30T22:39:36.339Z,18.42
2022-10-30T22:42:03.088Z,18.23
2022-10-30T22:44:29.872Z,18.52
2022-10-30T22:46:56.630Z,18.29
2022-10-30T22:49:23.402Z,18.32
2022-10-30T22:51:50.164Z,18.39
2022-10-30T22:54:16.961Z,18.40
2022-10-30T22:56:43.742Z,18.35
2022-10-30T22:59:12.972Z,18.40
2022-10-30T23:01:40.904Z,18.42
2022-10-30T23:04:11.053Z,18.44
2022-10-30T23:06:38.257Z,18.32
2022-10-30T23:09:08.539Z,18.09
2022-10-30T23:11:35.442Z,17.87
2022-10-30T23:14:02.232Z,17.97
2022-10-30T23:16:29.364Z,17.83
2022-10-30T23:18:58.677Z,17.61
2022-10-30T23:21:28.339Z,17.51
2022-10-30T23:23:55.929Z,17.28
2022-10-30T23:26:28.893Z,17.24
2022-10-30T23:28:57.015Z,17.05
2022-10-30T23:31:27.540Z,17.01
2022-10-30T23:33:57.575Z,16.92
2022-10-30T23:36:25.313Z,16.75
2022-10-30T23:38:55.781Z,16.86
2022-10-30T23:41:24.995Z,16.89
2022-10-30T23:43:57.086Z,16.79
2022-10-30T23:46:24.061Z,16.81
2022-10-30T23:48:50.839Z,16.91
2022-10-30T23:51:18.539Z,16.69
2022-10-30T23:53:45.305Z,16.57
2022-10-30T23:56:12.595Z,16.90
2022-10-30T23:58:42.355Z,16.87
